createdAt,value
2023-01-20T00:01:15.137Z,61.30
2023-01-20T00:03:42.314Z,60.70
2023-01-20T00:06:09.970Z,65.00
2023-01-20T00:08:36.380Z,68.50
2023-01-20T00:11:07.445Z,72.40
2023-01-20T00:13:35.781Z,73.00
2023-01-20T00:16:03.963Z,73.00
2023-01-20T00:18:30.775Z,63.20
2023-01-20T00:21:01.581Z,64.10
2023-01-20T00:23:28.009Z,62.90
2023-01-20T00:25:54.455Z,59.70
2023-01-20T00:28:21.320Z,57.80
2023-01-20T00:30:48.185Z,55.30
2023-01-20T00:33:15.003Z,56.10
2023-01-20T00:35:42.439Z,56.50
2023-01-20T00:38:09.407Z,51.40
2023-01-20T00:40:36.171Z,46.70
2023-01-20T00:43:02.707Z,52.90
2023-01-20T00:45:29.237Z,50.70
2023-01-20T00:47:55.761Z,55.70
2023-01-20T00:50:22.291Z,50.70
2023-01-20T00:52:48.987Z,52.40
2023-01-20T00:55:15.957Z,49.00
2023-01-20T00:57:42.692Z,52.20
2023-01-20T01:00:10.234Z,52.40
2023-01-20T01:02:39.930Z,52.20
2023-01-20T01:05:06.916Z,52.40
2023-01-20T01:07:33.561Z,53.60
2023-01-20T01:10:00.124Z,49.50
2023-01-20T01:12:26.620Z,49.30
2023-01-20T01:14:53.407Z,47.70
2023-01-20T01:17:20.016Z,50.90
2023-01-20T01:19:46.762Z,49.80
2023-01-20T01:22:13.261Z,46.50
2023-01-20T01:24:39.679Z,51.30
2023-01-20T01:27:06.376Z,50.40
2023-01-20T01:29:33.231Z,52.20
2023-01-20T01:32:00.217Z,51.50
2023-01-20T01:34:26.706Z,53.30
2023-01-20T01:36:53.372Z,51.80
2023-01-20T01:39:20.334Z,53.20
2023-01-20T01:41:46.866Z,50.80
2023-01-20T01:44:14.663Z,52.90
2023-01-20T01:46:42.291Z,48.60
2023-01-20T01:49:22.654Z,50.00
2023-01-20T01:51:59.742Z,56.20
2023-01-20T01:54:33.292Z,58.40
2023-01-20T01:57:00.621Z,56.60
2023-01-20T01:59:27.784Z,56.40
2023-01-20T02:01:55.641Z,53.50
2023-01-20T02:04:27.840Z,51.10
2023-01-20T02:06:58.035Z,50.60
2023-01-20T02:09:26.541Z,51.40
2023-01-20T02:11:58.812Z,54.10
2023-01-20T02:14:49.214Z,53.40
2023-01-20T02:17:28.164Z,53.00
2023-01-20T02:20:25.403Z,52.40
2023-01-20T02:23:13.055Z,55.40
2023-01-20T02:26:02.085Z,51.10
2023-01-20T02:28:52.980Z,52.20
2023-01-20T02:31:44.409Z,53.60
2023-01-20T02:34:22.182Z,53.80
2023-01-20T02:36:57.897Z,52.70
2023-01-20T02:39:42.845Z,53.80
2023-01-20T02:42:25.004Z,55.60
2023-01-20T02:45:04.860Z,54.60
2023-01-20T02:47:51.005Z,59.60
2023-01-20T02:50:22.104Z,62.70
2023-01-20T02:53:01.626Z,69.50
2023-01-20T02:55:36.240Z,68.90
2023-01-20T02:58:10.498Z,69.60
2023-01-20T03:00:43.504Z,65.80
2023-01-20T03:03:15.581Z,63.40
2023-01-20T03:05:49.217Z,57.90
2023-01-20T03:08:17.777Z,59.20
2023-01-20T03:10:47.173Z,58.60
2023-01-20T03:13:26.252Z,60.70
2023-01-20T03:16:02.580Z,61.30
2023-01-20T03:18:30.543Z,53.60
2023-01-20T03:20:59.801Z,56.30
2023-01-20T03:23:30.289Z,52.60
2023-01-20T03:25:56.983Z,54.60
2023-01-20T03:28:23.394Z,51.80
2023-01-20T03:30:50.355Z,53.60
2023-01-20T03:33:18.509Z,51.90
2023-01-20T03:35:45.114Z,54.30
2023-01-20T03:38:12.116Z,56.00
2023-01-20T03:40:47.277Z,54.50
2023-01-20T03:43:32.254Z,55.30
2023-01-20T03:46:07.017Z,52.40
2023-01-20T03:48:42.290Z,52.40
2023-01-20T03:51:29.988Z,51.20
2023-01-20T03:54:04.011Z,49.30
2023-01-20T03:56:38.079Z,48.40
2023-01-20T03:59:07.390Z,45.30
2023-01-20T04:01:41.804Z,45.00
2023-01-20T04:04:12.871Z,42.50
2023-01-20T04:06:41.541Z,42.70
2023-01-20T04:09:20.469Z,40.70
2023-01-20T04:11:47.028Z,40.40
2023-01-20T04:14:13.552Z,39.10
2023-01-20T04:16:40.247Z,40.60
2023-01-20T04:19:06.909Z,38.30
2023-01-20T04:21:45.689Z,37.90
2023-01-20T04:24:34.635Z,37.50
2023-01-20T04:27:01.736Z,37.10
2023-01-20T04:29:28.319Z,41.30
2023-01-20T04:31:59.909Z,38.60
2023-01-20T04:34:26.631Z,37.00
2023-01-20T04:36:53.395Z,41.40
2023-01-20T04:39:19.916Z,37.70
2023-01-20T04:41:47.591Z,38.10
2023-01-20T04:44:14.279Z,38.10
2023-01-20T04:46:40.804Z,36.80
2023-01-20T04:49:07.882Z,35.70
2023-01-20T04:51:34.576Z,38.00
2023-01-20T04:54:01.055Z,37.00
2023-01-20T04:56:27.849Z,34.60
2023-01-20T04:58:54.286Z,34.40
2023-01-20T05:01:21.112Z,33.40
2023-01-20T05:03:47.988Z,31.00
2023-01-20T05:06:14.741Z,31.80
2023-01-20T05:08:41.276Z,32.60
2023-01-20T05:11:08.237Z,32.00
2023-01-20T05:13:34.682Z,32.30
2023-01-20T05:16:02.953Z,30.80
2023-01-20T05:18:29.993Z,31.20
2023-01-20T05:20:56.544Z,30.20
2023-01-20T05:23:22.974Z,31.50
2023-01-20T05:25:53.711Z,31.80
2023-01-20T05:28:20.714Z,32.50
2023-01-20T05:30:51.299Z,33.90
2023-01-20T05:33:17.952Z,32.90
2023-01-20T05:35:44.486Z,33.30
2023-01-20T05:38:11.026Z,34.30
2023-01-20T05:40:37.901Z,32.90
2023-01-20T05:43:04.773Z,33.80
2023-01-20T05:45:31.597Z,35.80
2023-01-20T05:47:59.801Z,34.50
2023-01-20T05:50:28.252Z,33.60
2023-01-20T05:52:55.087Z,33.90
2023-01-20T05:55:21.744Z,37.10
2023-01-20T05:57:48.479Z,34.70
2023-01-20T06:00:15.186Z,37.50
2023-01-20T06:02:42.182Z,37.90
2023-01-20T06:05:08.939Z,32.60
2023-01-20T06:07:35.476Z,34.00
2023-01-20T06:10:02.028Z,32.00
2023-01-20T06:12:28.476Z,33.20
2023-01-20T06:14:55.011Z,29.20
2023-01-20T06:17:21.636Z,33.00
2023-01-20T06:19:48.172Z,32.50
2023-01-20T06:22:15.317Z,28.80
2023-01-20T06:24:42.303Z,38.10
2023-01-20T06:27:10.143Z,40.50
2023-01-20T06:29:37.095Z,37.80
2023-01-20T06:32:04.359Z,32.60
2023-01-20T06:34:31.520Z,34.00
2023-01-20T06:36:58.358Z,30.80
2023-01-20T06:39:25.000Z,32.10
2023-01-20T06:41:51.466Z,31.00
2023-01-20T06:44:17.977Z,31.60
2023-01-20T06:46:46.720Z,28.20
2023-01-20T06:49:15.067Z,28.70
2023-01-20T06:51:41.670Z,26.40
2023-01-20T06:54:08.136Z,26.10
2023-01-20T06:56:35.084Z,26.90
2023-01-20T06:59:01.567Z,27.20
2023-01-20T07:01:30.323Z,26.70
2023-01-20T07:03:57.688Z,25.40
2023-01-20T07:06:36.129Z,23.70
2023-01-20T07:09:02.765Z,22.50
2023-01-20T07:11:29.476Z,24.30
2023-01-20T07:13:55.905Z,23.70
2023-01-20T07:16:22.587Z,26.20
2023-01-20T07:18:51.052Z,65.10
2023-01-20T07:21:18.374Z,54.30
2023-01-20T07:23:45.966Z,114.90
2023-01-20T07:26:17.831Z,36.90
2023-01-20T07:28:46.021Z,38.70
2023-01-20T07:31:18.940Z,42.90
2023-01-20T07:33:46.162Z,33.00
2023-01-20T07:36:14.479Z,47.40
2023-01-20T07:38:41.486Z,52.20
2023-01-20T07:41:11.046Z,73.20
2023-01-20T07:43:37.763Z,47.30
2023-01-20T07:46:05.532Z,58.30
2023-01-20T07:48:33.622Z,35.70
2023-01-20T07:51:02.967Z,41.70
2023-01-20T07:53:30.476Z,44.20
2023-01-20T07:56:01.131Z,39.40
2023-01-20T07:58:28.776Z,40.90
2023-01-20T08:00:55.932Z,40.80
2023-01-20T08:03:23.095Z,50.80
2023-01-20T08:05:49.768Z,43.90
2023-01-20T08:08:16.197Z,75.40
2023-01-20T08:10:42.747Z,60.30
2023-01-20T08:13:09.352Z,58.00
2023-01-20T08:15:35.759Z,58.60
2023-01-20T08:18:02.290Z,58.00
2023-01-20T08:20:28.723Z,40.90
2023-01-20T08:22:55.154Z,35.10
2023-01-20T08:25:21.852Z,31.70
2023-01-20T08:27:49.003Z,32.00
2023-01-20T08:30:15.589Z,32.70
2023-01-20T08:32:42.090Z,33.60
2023-01-20T08:35:08.735Z,31.60
2023-01-20T08:37:38.309Z,34.70
2023-01-20T08:40:07.614Z,36.90
2023-01-20T08:42:34.232Z,35.70
2023-01-20T08:45:00.951Z,41.40
2023-01-20T08:47:27.436Z,34.70
2023-01-20T08:49:54.534Z,50.40
2023-01-20T08:52:20.994Z,37.30
2023-01-20T08:54:47.747Z,41.00
2023-01-20T08:57:14.383Z,43.30
2023-01-20T08:59:41.044Z,45.30
2023-01-20T09:02:09.839Z,51.50
2023-01-20T09:04:37.265Z,48.70
2023-01-20T09:07:05.088Z,47.30
2023-01-20T09:09:31.682Z,36.60
2023-01-20T09:11:58.215Z,44.00
2023-01-20T09:14:25.565Z,57.70
2023-01-20T09:16:52.459Z,45.10
2023-01-20T09:19:19.049Z,36.70
2023-01-20T09:21:45.700Z,39.80
2023-01-20T09:24:12.249Z,43.00
2023-01-20T09:26:39.075Z,41.80
2023-01-20T09:29:11.485Z,40.10
2023-01-20T09:31:40.819Z,38.60
2023-01-20T09:34:07.745Z,40.90
2023-01-20T09:36:34.482Z,41.70
2023-01-20T09:39:01.077Z,42.40
2023-01-20T09:41:32.214Z,38.40
2023-01-20T09:44:24.990Z,51.40
2023-01-20T09:46:58.759Z,38.70
2023-01-20T09:49:35.560Z,39.70
2023-01-20T09:52:21.527Z,39.90
2023-01-20T09:54:55.972Z,40.80
2023-01-20T09:57:27.780Z,41.40
2023-01-20T10:00:05.633Z,37.50
2023-01-20T10:02:36.052Z,37.80
2023-01-20T10:05:12.059Z,39.90
2023-01-20T10:07:48.372Z,42.40
2023-01-20T10:10:39.546Z,44.10
2023-01-20T10:13:30.211Z,43.50
2023-01-20T10:15:57.475Z,45.50
2023-01-20T10:18:43.794Z,44.00
2023-01-20T10:21:13.369Z,43.80
2023-01-20T10:23:50.603Z,42.30
2023-01-20T10:26:32.360Z,53.40
2023-01-20T10:29:06.815Z,47.60
2023-01-20T10:31:41.426Z,49.90
2023-01-20T10:34:12.674Z,39.80
2023-01-20T10:36:44.335Z,42.70
2023-01-20T10:39:28.584Z,43.70
2023-01-20T10:42:04.362Z,38.70
2023-01-20T10:44:34.508Z,39.00
2023-01-20T10:47:35.014Z,35.20
2023-01-20T10:50:31.459Z,35.10
2023-01-20T10:53:15.619Z,35.30
2023-01-20T10:56:02.140Z,34.80
2023-01-20T10:58:33.727Z,37.30
2023-01-20T11:03:36.650Z,36.90
2023-01-20T11:06:04.408Z,37.00
2023-01-20T11:08:31.399Z,39.40
2023-01-20T11:11:11.158Z,34.20
2023-01-20T11:13:38.194Z,37.70
2023-01-20T11:16:14.018Z,35.50
2023-01-20T11:18:40.927Z,40.40
2023-01-20T11:21:11.834Z,54.50
2023-01-20T11:23:48.769Z,42.40
2023-01-20T11:26:23.213Z,36.40
2023-01-20T11:29:12.623Z,33.30
2023-01-20T11:31:47.430Z,30.10
2023-01-20T11:34:34.711Z,31.90
2023-01-20T11:37:07.099Z,38.40
2023-01-20T11:39:36.627Z,33.80
2023-01-20T11:42:20.783Z,42.40
2023-01-20T11:44:51.499Z,38.30
2023-01-20T11:47:28.754Z,32.80
2023-01-20T11:50:04.244Z,36.90
2023-01-20T11:52:33.397Z,26.40
2023-01-20T11:55:09.584Z,24.50
2023-01-20T11:57:38.218Z,27.70
2023-01-20T12:00:30.691Z,27.20
2023-01-20T12:03:15.700Z,30.10
2023-01-20T12:06:11.394Z,26.50
2023-01-20T12:08:52.701Z,26.90
2023-01-20T12:11:58.404Z,26.50
2023-01-20T12:14:42.240Z,29.10
2023-01-20T12:17:25.254Z,29.80
2023-01-20T12:20:56.767Z,31.40
2023-01-20T12:23:43.999Z,31.00
2023-01-20T12:26:11.274Z,32.40
2023-01-20T12:28:48.760Z,34.70
2023-01-20T12:31:17.664Z,33.20
2023-01-20T12:33:48.153Z,33.30
2023-01-20T12:36:49.755Z,25.90
2023-01-20T12:39:38.046Z,41.40
2023-01-20T12:42:21.682Z,67.00
2023-01-20T12:45:18.506Z,69.70
2023-01-20T12:48:12.928Z,51.10
2023-01-20T12:51:08.805Z,31.10
2023-01-20T12:54:15.371Z,32.10
2023-01-20T12:56:56.623Z,36.10
2023-01-20T12:59:51.296Z,32.70
2023-01-20T13:02:23.789Z,36.50
2023-01-20T13:05:34.976Z,42.60
2023-01-20T13:08:11.581Z,43.00
2023-01-20T13:10:51.423Z,28.70
2023-01-20T13:13:24.692Z,31.60
2023-01-20T13:16:13.121Z,32.50
2023-01-20T13:19:04.181Z,38.20
2023-01-20T13:21:32.638Z,40.50
2023-01-20T13:24:03.021Z,34.50
2023-01-20T13:26:31.455Z,38.00
2023-01-20T13:28:58.717Z,33.80
2023-01-20T13:31:37.453Z,37.90
2023-01-20T13:34:22.537Z,36.10
2023-01-20T13:37:04.473Z,30.60
2023-01-20T13:39:47.066Z,34.10
2023-01-20T13:42:30.906Z,33.80
2023-01-20T13:45:27.255Z,32.70
2023-01-20T13:47:57.220Z,41.60
2023-01-20T13:50:25.758Z,35.00
2023-01-20T13:52:52.273Z,45.80
2023-01-20T13:55:41.187Z,39.80
2023-01-20T13:58:15.743Z,39.20
2023-01-20T14:00:43.161Z,36.20
2023-01-20T14:03:21.929Z,35.90
2023-01-20T14:05:50.758Z,35.60
2023-01-20T14:08:17.711Z,31.80
2023-01-20T14:10:44.451Z,32.80
2023-01-20T14:13:12.632Z,35.80
2023-01-20T14:15:40.190Z,34.70
2023-01-20T14:18:15.145Z,41.30
2023-01-20T14:20:41.659Z,33.20
2023-01-20T14:23:35.910Z,36.20
2023-01-20T14:26:11.825Z,36.10
2023-01-20T14:28:45.918Z,27.50
2023-01-20T14:31:17.440Z,32.10
2023-01-20T14:36:16.541Z,32.20
2023-01-20T14:38:56.847Z,30.50
2023-01-20T14:41:24.345Z,29.30
2023-01-20T14:43:50.842Z,32.50
2023-01-20T14:46:18.012Z,32.10
2023-01-20T14:48:46.070Z,46.20
2023-01-20T14:51:13.409Z,57.70
2023-01-20T14:53:39.835Z,50.40
2023-01-20T14:56:16.965Z,41.60
2023-01-20T14:58:48.503Z,39.80
2023-01-20T15:03:44.466Z,43.60
2023-01-20T15:06:10.866Z,44.00
2023-01-20T15:08:37.432Z,43.20
2023-01-20T15:11:15.992Z,84.50
2023-01-20T15:14:03.632Z,71.70
2023-01-20T15:16:38.173Z,70.50
2023-01-20T15:19:13.889Z,73.90
2023-01-20T15:21:42.901Z,66.80
2023-01-20T15:24:12.946Z,93.70
2023-01-20T15:26:39.889Z,72.40
2023-01-20T15:29:26.868Z,50.10
2023-01-20T15:31:55.555Z,53.40
2023-01-20T15:34:22.761Z,52.10
2023-01-20T15:36:50.702Z,41.90
2023-01-20T15:39:20.943Z,41.40
2023-01-20T15:41:47.869Z,39.40
2023-01-20T15:44:15.162Z,40.30
2023-01-20T15:46:41.860Z,36.30
2023-01-20T15:49:11.870Z,37.50
2023-01-20T15:51:38.897Z,33.90
2023-01-20T15:54:05.356Z,31.40
2023-01-20T15:56:31.846Z,34.80
2023-01-20T15:58:58.389Z,32.70
2023-01-20T16:01:26.529Z,30.70
2023-01-20T16:03:53.715Z,33.30
2023-01-20T16:06:22.558Z,38.10
2023-01-20T16:08:50.066Z,29.80
2023-01-20T16:11:20.093Z,29.50
2023-01-20T16:13:47.039Z,48.30
2023-01-20T16:16:16.190Z,45.30
2023-01-20T16:18:42.986Z,36.50
2023-01-20T16:21:14.544Z,40.30
2023-01-20T16:23:42.744Z,38.40
2023-01-20T16:26:24.531Z,43.40
2023-01-20T16:28:52.658Z,36.20
2023-01-20T16:31:19.883Z,33.80
2023-01-20T16:33:47.124Z,39.90
2023-01-20T16:36:16.892Z,39.70
2023-01-20T16:38:44.092Z,55.20
2023-01-20T16:41:25.377Z,59.40
2023-01-20T16:43:54.078Z,74.20
2023-01-20T16:46:29.202Z,39.00
2023-01-20T16:48:56.314Z,100.50
2023-01-20T16:51:23.535Z,62.70
2023-01-20T16:53:49.985Z,80.20
2023-01-20T16:56:21.410Z,67.10
2023-01-20T16:58:49.095Z,31.30
2023-01-20T17:01:16.650Z,136.20
2023-01-20T17:03:43.295Z,73.60
2023-01-20T17:06:12.389Z,31.70
2023-01-20T17:08:39.024Z,52.40
2023-01-20T17:11:05.890Z,48.00
2023-01-20T17:13:32.620Z,50.80
2023-01-20T17:15:59.360Z,61.20
2023-01-20T17:18:25.797Z,41.40
2023-01-20T17:20:52.335Z,43.40
2023-01-20T17:23:18.798Z,30.60
2023-01-20T17:25:45.417Z,39.00
2023-01-20T17:28:11.955Z,33.10
2023-01-20T17:30:38.415Z,28.90
2023-01-20T17:33:04.949Z,35.40
2023-01-20T17:35:31.574Z,28.00
2023-01-20T17:37:58.224Z,27.30
2023-01-20T17:40:24.755Z,31.00
2023-01-20T17:42:54.068Z,43.60
2023-01-20T17:45:20.607Z,31.60
2023-01-20T17:47:50.793Z,45.70
2023-01-20T17:50:18.186Z,41.30
2023-01-20T17:52:45.089Z,38.80
2023-01-20T17:55:11.541Z,38.60
2023-01-20T17:57:38.045Z,34.30
2023-01-20T18:00:05.843Z,29.20
2023-01-20T18:02:32.288Z,38.70
2023-01-20T18:04:58.725Z,51.60
2023-01-20T18:07:25.301Z,44.70
2023-01-20T18:09:51.783Z,48.10
2023-01-20T18:12:18.297Z,46.40
2023-01-20T18:14:44.830Z,50.80
2023-01-20T18:17:11.700Z,44.60
2023-01-20T18:19:38.219Z,35.60
2023-01-20T18:22:04.965Z,42.30
2023-01-20T18:24:31.387Z,44.10
2023-01-20T18:26:58.030Z,59.30
2023-01-20T18:29:24.796Z,41.80
2023-01-20T18:31:51.767Z,37.70
2023-01-20T18:34:18.395Z,51.80
2023-01-20T18:36:45.749Z,39.70
2023-01-20T18:39:24.316Z,41.00
2023-01-20T18:41:51.947Z,44.00
2023-01-20T18:44:19.935Z,45.00
2023-01-20T18:46:47.179Z,45.60
2023-01-20T18:49:15.197Z,44.10
2023-01-20T18:51:42.540Z,35.50
2023-01-20T18:54:15.998Z,43.20
2023-01-20T18:56:43.240Z,45.10
2023-01-20T18:59:11.580Z,43.10
2023-01-20T19:01:40.109Z,39.70
2023-01-20T19:04:09.262Z,38.60
2023-01-20T19:06:44.687Z,34.60
2023-01-20T19:09:12.255Z,42.30
2023-01-20T19:11:41.336Z,38.80
2023-01-20T19:14:11.909Z,31.80
2023-01-20T19:16:39.533Z,35.20
2023-01-20T19:19:07.331Z,29.10
2023-01-20T19:21:35.178Z,29.10
2023-01-20T19:24:03.047Z,29.00
2023-01-20T19:26:29.585Z,33.50
2023-01-20T19:28:57.241Z,32.10
2023-01-20T19:31:24.629Z,37.60
2023-01-20T19:33:51.550Z,30.00
2023-01-20T19:36:19.422Z,30.90
2023-01-20T19:38:46.707Z,26.90
2023-01-20T19:41:31.970Z,26.90
2023-01-20T19:44:00.600Z,28.90
2023-01-20T19:46:32.839Z,29.10
2023-01-20T19:49:00.494Z,29.90
2023-01-20T19:51:27.245Z,29.20
2023-01-20T19:53:56.240Z,22.30
2023-01-20T19:56:24.100Z,20.70
2023-01-20T19:58:52.792Z,25.60
2023-01-20T20:01:31.938Z,19.80
2023-01-20T20:03:59.209Z,36.90
2023-01-20T20:06:37.504Z,32.80
2023-01-20T20:09:10.928Z,30.00
2023-01-20T20:11:38.163Z,27.70
2023-01-20T20:14:06.737Z,30.10
2023-01-20T20:16:35.736Z,35.20
2023-01-20T20:19:02.716Z,40.70
2023-01-20T20:21:29.151Z,40.80
2023-01-20T20:23:58.355Z,41.90
2023-01-20T20:26:31.616Z,26.00
2023-01-20T20:28:59.718Z,33.20
2023-01-20T20:31:26.657Z,23.00
2023-01-20T20:33:53.508Z,26.40
2023-01-20T20:36:20.007Z,22.70
2023-01-20T20:38:51.238Z,20.00
2023-01-20T20:43:45.399Z,22.00
2023-01-20T20:46:15.911Z,20.10
2023-01-20T20:48:42.877Z,22.70
2023-01-20T20:51:12.922Z,21.40
2023-01-20T20:53:40.474Z,17.60
2023-01-20T20:56:14.884Z,17.50
2023-01-20T20:59:00.062Z,18.00
2023-01-20T21:01:29.226Z,17.00
2023-01-20T21:03:55.926Z,18.50
2023-01-20T21:06:22.343Z,19.00
2023-01-20T21:08:49.235Z,18.30
2023-01-20T21:11:15.831Z,18.20
2023-01-20T21:13:42.573Z,20.70
2023-01-20T21:16:14.540Z,18.60
2023-01-20T21:18:41.697Z,16.20
2023-01-20T21:21:12.589Z,16.80
2023-01-20T21:23:39.733Z,23.70
2023-01-20T21:26:13.104Z,17.30
2023-01-20T21:28:40.573Z,17.70
2023-01-20T21:31:15.413Z,16.70
2023-01-20T21:33:43.691Z,17.50
2023-01-20T21:36:10.547Z,18.10
2023-01-20T21:38:36.981Z,17.60
2023-01-20T21:41:05.236Z,18.20
2023-01-20T21:43:32.905Z,20.60
2023-01-20T21:45:59.297Z,18.60
2023-01-20T21:48:25.753Z,16.70
2023-01-20T21:50:52.331Z,16.90
2023-01-20T21:53:18.891Z,18.00
2023-01-20T21:55:45.391Z,18.10
2023-01-20T21:58:11.812Z,15.50
2023-01-20T22:00:38.269Z,16.80
2023-01-20T22:03:04.752Z,15.40
2023-01-20T22:05:31.244Z,16.50
2023-01-20T22:07:57.783Z,15.60
2023-01-20T22:10:24.277Z,14.50
2023-01-20T22:12:50.769Z,15.10
2023-01-20T22:15:17.308Z,14.90
2023-01-20T22:17:43.770Z,13.70
2023-01-20T22:20:10.922Z,15.80
2023-01-20T22:22:37.341Z,14.30
2023-01-20T22:25:03.971Z,13.20
2023-01-20T22:27:30.568Z,15.00
2023-01-20T22:29:57.061Z,13.70
2023-01-20T22:32:23.539Z,14.60
2023-01-20T22:34:49.971Z,13.90
2023-01-20T22:37:16.578Z,15.10
2023-01-20T22:39:43.121Z,13.80
2023-01-20T22:42:09.592Z,15.80
2023-01-20T22:44:36.104Z,15.50
2023-01-20T22:47:02.700Z,17.10
2023-01-20T22:49:29.188Z,17.60
2023-01-20T22:51:55.628Z,13.50
2023-01-20T22:54:22.265Z,19.30
2023-01-20T22:56:48.799Z,16.90
2023-01-20T22:59:15.358Z,14.20
2023-01-20T23:01:41.896Z,14.40
2023-01-20T23:04:09.743Z,17.50
2023-01-20T23:06:36.962Z,17.10
2023-01-20T23:09:07.479Z,16.40
2023-01-20T23:11:34.883Z,14.30
2023-01-20T23:14:01.592Z,15.70
2023-01-20T23:16:28.328Z,14.30
2023-01-20T23:18:54.937Z,16.70
2023-01-20T23:21:21.864Z,14.50
2023-01-20T23:23:48.532Z,14.30
2023-01-20T23:26:18.952Z,15.00
2023-01-20T23:28:47.034Z,15.10
2023-01-20T23:31:16.363Z,15.90
2023-01-20T23:33:44.226Z,16.60
2023-01-20T23:36:14.427Z,14.90
2023-01-20T23:38:42.389Z,14.70
2023-01-20T23:41:09.881Z,16.60
2023-01-20T23:43:36.421Z,14.70
2023-01-20T23:46:05.271Z,14.00
2023-01-20T23:48:32.543Z,13.70
2023-01-20T23:50:59.124Z,15.40
2023-01-20T23:53:27.358Z,15.90
2023-01-20T23:55:59.164Z,14.40
2023-01-20T23:58:25.702Z,14.20
